sensor_id;sensor_type;location;lat;lon;timestamp;temperature;humidity
52643;DHT22;38531;53.296;6.614;2023-09-07T00:00:14;18.40;99.90
52643;DHT22;38531;53.296;6.614;2023-09-07T00:02:40;18.30;99.90
52643;DHT22;38531;53.296;6.614;2023-09-07T00:05:07;18.20;99.90
52643;DHT22;38531;53.296;6.614;2023-09-07T00:07:33;18.20;99.90
52643;DHT22;38531;53.296;6.614;2023-09-07T00:09:59;18.10;99.90
52643;DHT22;38531;53.296;6.614;2023-09-07T00:12:26;18.10;99.90
52643;DHT22;38531;53.296;6.614;2023-09-07T00:14:54;18.10;99.90
52643;DHT22;38531;53.296;6.614;2023-09-07T00:17:21;18.00;99.90
52643;DHT22;38531;53.296;6.614;2023-09-07T00:19:47;18.00;99.90
52643;DHT22;38531;53.296;6.614;2023-09-07T00:22:15;17.90;99.90
52643;DHT22;38531;53.296;6.614;2023-09-07T00:24:41;17.90;99.90
52643;DHT22;38531;53.296;6.614;2023-09-07T00:27:07;17.80;99.90
52643;DHT22;38531;53.296;6.614;2023-09-07T00:29:34;17.70;99.90
52643;DHT22;38531;53.296;6.614;2023-09-07T00:32:01;17.80;99.90
52643;DHT22;38531;53.296;6.614;2023-09-07T00:34:27;17.80;99.90
52643;DHT22;38531;53.296;6.614;2023-09-07T00:36:53;17.70;99.90
52643;DHT22;38531;53.296;6.614;2023-09-07T00:39:19;17.70;99.90
52643;DHT22;38531;53.296;6.614;2023-09-07T00:41:44;17.70;99.90
52643;DHT22;38531;53.296;6.614;2023-09-07T00:44:10;17.70;99.90
52643;DHT22;38531;53.296;6.614;2023-09-07T00:46:36;17.70;99.90
52643;DHT22;38531;53.296;6.614;2023-09-07T00:49:02;17.60;99.90
52643;DHT22;38531;53.296;6.614;2023-09-07T00:51:30;17.60;99.90
52643;DHT22;38531;53.296;6.614;2023-09-07T00:53:56;17.60;99.90
52643;DHT22;38531;53.296;6.614;2023-09-07T00:56:22;17.60;99.90
52643;DHT22;38531;53.296;6.614;2023-09-07T00:58:50;17.50;99.90
52643;DHT22;38531;53.296;6.614;2023-09-07T01:01:17;17.50;99.90
52643;DHT22;38531;53.296;6.614;2023-09-07T01:03:42;17.40;99.90
52643;DHT22;38531;53.296;6.614;2023-09-07T01:06:18;17.50;99.90
52643;DHT22;38531;53.296;6.614;2023-09-07T01:08:48;17.40;99.90
52643;DHT22;38531;53.296;6.614;2023-09-07T01:11:20;17.50;99.90
52643;DHT22;38531;53.296;6.614;2023-09-07T01:13:48;17.40;99.90
52643;DHT22;38531;53.296;6.614;2023-09-07T01:16:14;17.40;99.90
52643;DHT22;38531;53.296;6.614;2023-09-07T01:18:40;17.30;99.90
52643;DHT22;38531;53.296;6.614;2023-09-07T01:21:07;17.30;99.90
52643;DHT22;38531;53.296;6.614;2023-09-07T01:23:38;17.30;99.90
52643;DHT22;38531;53.296;6.614;2023-09-07T01:26:08;17.20;99.90
52643;DHT22;38531;53.296;6.614;2023-09-07T01:28:35;17.20;99.90
52643;DHT22;38531;53.296;6.614;2023-09-07T01:31:05;17.20;99.90
52643;DHT22;38531;53.296;6.614;2023-09-07T01:33:32;17.20;99.90
52643;DHT22;38531;53.296;6.614;2023-09-07T01:35:57;17.20;99.90
52643;DHT22;38531;53.296;6.614;2023-09-07T01:38:26;17.10;99.90
52643;DHT22;38531;53.296;6.614;2023-09-07T01:40:52;17.20;99.90
52643;DHT22;38531;53.296;6.614;2023-09-07T01:43:19;17.10;99.90
52643;DHT22;38531;53.296;6.614;2023-09-07T01:45:47;17.20;99.90
52643;DHT22;38531;53.296;6.614;2023-09-07T01:48:14;17.20;99.90
52643;DHT22;38531;53.296;6.614;2023-09-07T01:50:40;17.20;99.90
52643;DHT22;38531;53.296;6.614;2023-09-07T01:53:06;17.20;99.90
52643;DHT22;38531;53.296;6.614;2023-09-07T01:55:32;17.20;99.90
52643;DHT22;38531;53.296;6.614;2023-09-07T01:57:58;17.10;99.90
52643;DHT22;38531;53.296;6.614;2023-09-07T02:00:24;17.10;99.90
52643;DHT22;38531;53.296;6.614;2023-09-07T02:02:50;17.10;99.90
52643;DHT22;38531;53.296;6.614;2023-09-07T02:05:18;17.10;99.90
52643;DHT22;38531;53.296;6.614;2023-09-07T02:07:47;17.00;99.90
52643;DHT22;38531;53.296;6.614;2023-09-07T02:10:15;17.00;99.90
52643;DHT22;38531;53.296;6.614;2023-09-07T02:12:41;17.00;99.90
52643;DHT22;38531;53.296;6.614;2023-09-07T02:15:06;17.00;99.90
52643;DHT22;38531;53.296;6.614;2023-09-07T02:17:32;17.00;99.90
52643;DHT22;38531;53.296;6.614;2023-09-07T02:19:58;17.00;99.90
52643;DHT22;38531;53.296;6.614;2023-09-07T02:22:24;16.90;99.90
52643;DHT22;38531;53.296;6.614;2023-09-07T02:24:50;17.10;99.90
52643;DHT22;38531;53.296;6.614;2023-09-07T02:27:15;16.90;99.90
52643;DHT22;38531;53.296;6.614;2023-09-07T02:29:41;16.90;99.90
52643;DHT22;38531;53.296;6.614;2023-09-07T02:32:09;16.90;99.90
52643;DHT22;38531;53.296;6.614;2023-09-07T02:34:35;16.90;99.90
52643;DHT22;38531;53.296;6.614;2023-09-07T02:37:02;16.90;99.90
52643;DHT22;38531;53.296;6.614;2023-09-07T02:39:28;16.90;99.90
52643;DHT22;38531;53.296;6.614;2023-09-07T02:41:54;16.90;99.90
52643;DHT22;38531;53.296;6.614;2023-09-07T02:44:22;16.80;99.90
52643;DHT22;38531;53.296;6.614;2023-09-07T02:46:48;16.80;99.90
52643;DHT22;38531;53.296;6.614;2023-09-07T02:49:14;16.80;99.90
52643;DHT22;38531;53.296;6.614;2023-09-07T02:51:40;16.70;99.90
52643;DHT22;38531;53.296;6.614;2023-09-07T02:54:05;16.70;99.90
52643;DHT22;38531;53.296;6.614;2023-09-07T02:56:33;16.70;99.90
52643;DHT22;38531;53.296;6.614;2023-09-07T02:58:59;16.70;99.90
52643;DHT22;38531;53.296;6.614;2023-09-07T03:01:24;16.70;99.90
52643;DHT22;38531;53.296;6.614;2023-09-07T03:03:50;16.60;99.90
52643;DHT22;38531;53.296;6.614;2023-09-07T03:06:17;16.60;99.90
52643;DHT22;38531;53.296;6.614;2023-09-07T03:08:43;16.60;99.90
52643;DHT22;38531;53.296;6.614;2023-09-07T03:11:09;16.60;99.90
52643;DHT22;38531;53.296;6.614;2023-09-07T03:13:35;16.50;99.90
52643;DHT22;38531;53.296;6.614;2023-09-07T03:16:02;16.50;99.90
52643;DHT22;38531;53.296;6.614;2023-09-07T03:18:29;16.50;99.90
52643;DHT22;38531;53.296;6.614;2023-09-07T03:20:56;16.50;99.90
52643;DHT22;38531;53.296;6.614;2023-09-07T03:23:23;16.40;99.90
52643;DHT22;38531;53.296;6.614;2023-09-07T03:25:49;16.30;99.90
52643;DHT22;38531;53.296;6.614;2023-09-07T03:28:15;16.40;99.90
52643;DHT22;38531;53.296;6.614;2023-09-07T03:30:41;16.30;99.90
52643;DHT22;38531;53.296;6.614;2023-09-07T03:33:06;16.30;99.90
52643;DHT22;38531;53.296;6.614;2023-09-07T03:35:33;16.30;99.90
52643;DHT22;38531;53.296;6.614;2023-09-07T03:37:59;16.30;99.90
52643;DHT22;38531;53.296;6.614;2023-09-07T03:40:24;16.20;99.90
52643;DHT22;38531;53.296;6.614;2023-09-07T03:42:50;16.20;99.90
52643;DHT22;38531;53.296;6.614;2023-09-07T03:45:16;16.20;99.90
52643;DHT22;38531;53.296;6.614;2023-09-07T03:47:42;16.20;99.90
52643;DHT22;38531;53.296;6.614;2023-09-07T03:57:22;16.20;99.90
52643;DHT22;38531;53.296;6.614;2023-09-07T03:59:48;16.10;99.90
52643;DHT22;38531;53.296;6.614;2023-09-07T04:02:14;16.10;99.90
52643;DHT22;38531;53.296;6.614;2023-09-07T04:08:01;16.10;99.90
52643;DHT22;38531;53.296;6.614;2023-09-07T04:10:28;16.10;99.90
52643;DHT22;38531;53.296;6.614;2023-09-07T04:12:54;16.10;99.90
52643;DHT22;38531;53.296;6.614;2023-09-07T04:15:20;16.10;99.90
52643;DHT22;38531;53.296;6.614;2023-09-07T04:17:46;16.20;99.90
52643;DHT22;38531;53.296;6.614;2023-09-07T04:20:11;16.00;99.90
52643;DHT22;38531;53.296;6.614;2023-09-07T04:22:39;16.10;99.90
52643;DHT22;38531;53.296;6.614;2023-09-07T04:25:06;16.00;99.90
52643;DHT22;38531;53.296;6.614;2023-09-07T04:27:32;16.00;99.90
52643;DHT22;38531;53.296;6.614;2023-09-07T04:29:57;16.00;99.90
52643;DHT22;38531;53.296;6.614;2023-09-07T04:32:23;16.00;99.90
52643;DHT22;38531;53.296;6.614;2023-09-07T04:34:56;16.00;99.90
52643;DHT22;38531;53.296;6.614;2023-09-07T04:37:22;15.90;99.90
52643;DHT22;38531;53.296;6.614;2023-09-07T04:39:52;15.90;99.90
52643;DHT22;38531;53.296;6.614;2023-09-07T04:42:21;15.90;99.90
52643;DHT22;38531;53.296;6.614;2023-09-07T04:44:47;15.90;99.90
52643;DHT22;38531;53.296;6.614;2023-09-07T04:47:13;15.80;99.90
52643;DHT22;38531;53.296;6.614;2023-09-07T04:49:41;15.80;99.90
52643;DHT22;38531;53.296;6.614;2023-09-07T04:52:06;15.80;99.90
52643;DHT22;38531;53.296;6.614;2023-09-07T04:54:32;15.80;99.90
52643;DHT22;38531;53.296;6.614;2023-09-07T04:56:58;15.20;99.90
52643;DHT22;38531;53.296;6.614;2023-09-07T04:59:24;15.70;99.90
52643;DHT22;38531;53.296;6.614;2023-09-07T05:01:52;15.70;99.90
52643;DHT22;38531;53.296;6.614;2023-09-07T05:04:18;15.70;99.90
52643;DHT22;38531;53.296;6.614;2023-09-07T05:06:44;15.70;99.90
52643;DHT22;38531;53.296;6.614;2023-09-07T05:09:09;15.70;99.90
52643;DHT22;38531;53.296;6.614;2023-09-07T05:11:35;15.80;99.90
52643;DHT22;38531;53.296;6.614;2023-09-07T05:14:02;15.70;99.90
52643;DHT22;38531;53.296;6.614;2023-09-07T05:16:28;15.70;99.90
52643;DHT22;38531;53.296;6.614;2023-09-07T05:25:49;15.60;99.90
52643;DHT22;38531;53.296;6.614;2023-09-07T05:28:17;15.60;99.90
52643;DHT22;38531;53.296;6.614;2023-09-07T05:30:43;15.60;99.90
52643;DHT22;38531;53.296;6.614;2023-09-07T05:33:10;15.50;99.90
52643;DHT22;38531;53.296;6.614;2023-09-07T05:35:37;15.50;99.90
52643;DHT22;38531;53.296;6.614;2023-09-07T05:38:04;15.50;99.90
52643;DHT22;38531;53.296;6.614;2023-09-07T05:40:36;15.50;99.90
52643;DHT22;38531;53.296;6.614;2023-09-07T05:43:02;15.70;99.90
52643;DHT22;38531;53.296;6.614;2023-09-07T05:45:30;15.70;99.90
52643;DHT22;38531;53.296;6.614;2023-09-07T05:47:57;15.60;99.90
52643;DHT22;38531;53.296;6.614;2023-09-07T05:57:45;15.80;99.90
52643;DHT22;38531;53.296;6.614;2023-09-07T06:00:12;15.90;99.90
52643;DHT22;38531;53.296;6.614;2023-09-07T06:02:39;16.00;99.90
52643;DHT22;38531;53.296;6.614;2023-09-07T06:05:05;16.00;99.90
52643;DHT22;38531;53.296;6.614;2023-09-07T06:07:31;16.10;99.90
52643;DHT22;38531;53.296;6.614;2023-09-07T06:09:57;16.20;99.90
52643;DHT22;38531;53.296;6.614;2023-09-07T06:12:24;16.30;99.90
52643;DHT22;38531;53.296;6.614;2023-09-07T06:14:50;16.40;99.90
52643;DHT22;38531;53.296;6.614;2023-09-07T06:17:19;16.50;99.90
52643;DHT22;38531;53.296;6.614;2023-09-07T06:19:45;16.70;99.90
52643;DHT22;38531;53.296;6.614;2023-09-07T06:22:11;16.90;99.90
52643;DHT22;38531;53.296;6.614;2023-09-07T06:24:40;17.00;99.90
52643;DHT22;38531;53.296;6.614;2023-09-07T06:27:05;17.20;99.90
52643;DHT22;38531;53.296;6.614;2023-09-07T06:29:31;17.40;99.90
52643;DHT22;38531;53.296;6.614;2023-09-07T06:31:57;17.50;99.90
52643;DHT22;38531;53.296;6.614;2023-09-07T06:38:36;17.90;99.90
52643;DHT22;38531;53.296;6.614;2023-09-07T06:41:02;18.10;99.90
52643;DHT22;38531;53.296;6.614;2023-09-07T06:43:33;18.30;99.90
52643;DHT22;38531;53.296;6.614;2023-09-07T06:46:06;18.40;99.90
52643;DHT22;38531;53.296;6.614;2023-09-07T06:48:33;18.60;99.90
52643;DHT22;38531;53.296;6.614;2023-09-07T06:51:03;18.70;99.90
52643;DHT22;38531;53.296;6.614;2023-09-07T06:53:30;18.90;99.90
52643;DHT22;38531;53.296;6.614;2023-09-07T06:56:02;19.00;99.90
52643;DHT22;38531;53.296;6.614;2023-09-07T06:58:28;19.10;99.90
52643;DHT22;38531;53.296;6.614;2023-09-07T07:01:03;19.30;99.90
52643;DHT22;38531;53.296;6.614;2023-09-07T07:03:30;19.40;99.90
52643;DHT22;38531;53.296;6.614;2023-09-07T07:09:37;19.70;99.90
52643;DHT22;38531;53.296;6.614;2023-09-07T07:12:06;19.90;99.90
52643;DHT22;38531;53.296;6.614;2023-09-07T07:14:35;20.00;99.90
52643;DHT22;38531;53.296;6.614;2023-09-07T07:17:00;20.20;99.90
52643;DHT22;38531;53.296;6.614;2023-09-07T07:19:47;20.30;99.90
52643;DHT22;38531;53.296;6.614;2023-09-07T07:22:13;20.40;99.90
52643;DHT22;38531;53.296;6.614;2023-09-07T07:24:39;20.60;99.90
52643;DHT22;38531;53.296;6.614;2023-09-07T07:27:05;20.80;99.90
52643;DHT22;38531;53.296;6.614;2023-09-07T07:29:31;20.90;99.90
52643;DHT22;38531;53.296;6.614;2023-09-07T07:31:57;21.00;99.90
52643;DHT22;38531;53.296;6.614;2023-09-07T07:34:23;21.10;99.90
52643;DHT22;38531;53.296;6.614;2023-09-07T07:36:48;21.20;99.90
52643;DHT22;38531;53.296;6.614;2023-09-07T07:39:14;21.30;99.90
52643;DHT22;38531;53.296;6.614;2023-09-07T07:41:41;21.40;99.90
52643;DHT22;38531;53.296;6.614;2023-09-07T07:44:07;21.50;99.90
52643;DHT22;38531;53.296;6.614;2023-09-07T07:46:32;21.60;99.90
52643;DHT22;38531;53.296;6.614;2023-09-07T07:48:58;21.70;99.90
52643;DHT22;38531;53.296;6.614;2023-09-07T07:51:24;21.80;99.90
52643;DHT22;38531;53.296;6.614;2023-09-07T07:53:49;22.00;99.90
52643;DHT22;38531;53.296;6.614;2023-09-07T07:56:16;22.10;99.90
52643;DHT22;38531;53.296;6.614;2023-09-07T07:58:42;22.20;99.90
52643;DHT22;38531;53.296;6.614;2023-09-07T08:01:19;22.30;99.90
52643;DHT22;38531;53.296;6.614;2023-09-07T08:03:46;22.50;99.90
52643;DHT22;38531;53.296;6.614;2023-09-07T08:06:11;22.60;99.90
52643;DHT22;38531;53.296;6.614;2023-09-07T08:08:39;22.70;99.90
52643;DHT22;38531;53.296;6.614;2023-09-07T08:11:05;22.80;99.90
52643;DHT22;38531;53.296;6.614;2023-09-07T08:13:34;23.00;99.90
52643;DHT22;38531;53.296;6.614;2023-09-07T08:16:05;23.10;99.90
52643;DHT22;38531;53.296;6.614;2023-09-07T08:18:33;23.20;99.90
52643;DHT22;38531;53.296;6.614;2023-09-07T08:21:00;23.30;99.90
52643;DHT22;38531;53.296;6.614;2023-09-07T08:23:25;23.40;99.90
52643;DHT22;38531;53.296;6.614;2023-09-07T08:25:52;23.50;99.90
52643;DHT22;38531;53.296;6.614;2023-09-07T08:28:18;23.60;99.90
52643;DHT22;38531;53.296;6.614;2023-09-07T08:30:45;23.70;99.90
52643;DHT22;38531;53.296;6.614;2023-09-07T08:33:11;23.80;99.90
52643;DHT22;38531;53.296;6.614;2023-09-07T08:35:36;23.90;99.90
52643;DHT22;38531;53.296;6.614;2023-09-07T08:38:12;24.10;99.90
52643;DHT22;38531;53.296;6.614;2023-09-07T08:40:39;24.20;99.90
52643;DHT22;38531;53.296;6.614;2023-09-07T08:43:09;24.40;99.90
52643;DHT22;38531;53.296;6.614;2023-09-07T08:45:42;24.50;99.90
52643;DHT22;38531;53.296;6.614;2023-09-07T08:48:13;24.60;99.90
52643;DHT22;38531;53.296;6.614;2023-09-07T08:50:45;24.90;99.90
52643;DHT22;38531;53.296;6.614;2023-09-07T08:53:17;25.00;99.90
52643;DHT22;38531;53.296;6.614;2023-09-07T08:55:44;25.10;99.90
52643;DHT22;38531;53.296;6.614;2023-09-07T08:58:09;25.20;99.90
52643;DHT22;38531;53.296;6.614;2023-09-07T09:00:37;25.50;99.90
52643;DHT22;38531;53.296;6.614;2023-09-07T09:03:03;25.60;99.90
52643;DHT22;38531;53.296;6.614;2023-09-07T09:05:30;25.60;99.90
52643;DHT22;38531;53.296;6.614;2023-09-07T09:08:05;25.80;99.90
52643;DHT22;38531;53.296;6.614;2023-09-07T09:10:31;25.90;99.90
52643;DHT22;38531;53.296;6.614;2023-09-07T09:12:57;25.90;99.90
52643;DHT22;38531;53.296;6.614;2023-09-07T09:15:26;26.10;99.90
52643;DHT22;38531;53.296;6.614;2023-09-07T09:17:54;26.20;99.90
52643;DHT22;38531;53.296;6.614;2023-09-07T09:20:25;26.40;99.90
52643;DHT22;38531;53.296;6.614;2023-09-07T09:22:54;26.50;99.90
52643;DHT22;38531;53.296;6.614;2023-09-07T09:25:20;26.60;99.90
52643;DHT22;38531;53.296;6.614;2023-09-07T09:27:47;26.60;99.90
52643;DHT22;38531;53.296;6.614;2023-09-07T09:30:13;26.60;99.90
52643;DHT22;38531;53.296;6.614;2023-09-07T09:32:42;26.80;99.90
52643;DHT22;38531;53.296;6.614;2023-09-07T09:35:08;26.90;99.90
52643;DHT22;38531;53.296;6.614;2023-09-07T09:37:46;26.90;99.90
52643;DHT22;38531;53.296;6.614;2023-09-07T09:40:13;27.10;99.90
52643;DHT22;38531;53.296;6.614;2023-09-07T09:42:42;27.20;99.90
52643;DHT22;38531;53.296;6.614;2023-09-07T09:45:09;27.30;99.90
52643;DHT22;38531;53.296;6.614;2023-09-07T09:47:42;27.30;99.90
52643;DHT22;38531;53.296;6.614;2023-09-07T09:50:09;27.40;99.90
52643;DHT22;38531;53.296;6.614;2023-09-07T09:52:36;27.40;99.90
52643;DHT22;38531;53.296;6.614;2023-09-07T09:55:07;27.40;99.90
52643;DHT22;38531;53.296;6.614;2023-09-07T09:57:36;27.40;99.90
52643;DHT22;38531;53.296;6.614;2023-09-07T10:00:04;27.40;99.90
52643;DHT22;38531;53.296;6.614;2023-09-07T10:03:06;27.60;99.90
52643;DHT22;38531;53.296;6.614;2023-09-07T10:05:32;27.50;99.90
52643;DHT22;38531;53.296;6.614;2023-09-07T10:08:11;27.60;99.90
52643;DHT22;38531;53.296;6.614;2023-09-07T10:10:37;27.60;99.90
52643;DHT22;38531;53.296;6.614;2023-09-07T10:13:05;27.70;99.90
52643;DHT22;38531;53.296;6.614;2023-09-07T10:29:59;28.40;99.90
52643;DHT22;38531;53.296;6.614;2023-09-07T12:13:56;30.60;93.90
52643;DHT22;38531;53.296;6.614;2023-09-07T12:17:23;30.70;93.20
52643;DHT22;38531;53.296;6.614;2023-09-07T12:45:17;30.70;92.70
52643;DHT22;38531;53.296;6.614;2023-09-07T12:48:21;31.00;93.00
52643;DHT22;38531;53.296;6.614;2023-09-07T13:06:14;31.50;91.90
52643;DHT22;38531;53.296;6.614;2023-09-07T13:09:08;31.40;91.00
52643;DHT22;38531;53.296;6.614;2023-09-07T13:11:48;31.30;91.50
52643;DHT22;38531;53.296;6.614;2023-09-07T13:17:34;31.30;92.30
52643;DHT22;38531;53.296;6.614;2023-09-07T13:22:40;31.30;90.30
52643;DHT22;38531;53.296;6.614;2023-09-07T13:25:15;31.30;91.90
52643;DHT22;38531;53.296;6.614;2023-09-07T13:28:11;31.30;92.00
52643;DHT22;38531;53.296;6.614;2023-09-07T13:30:39;31.40;91.60
52643;DHT22;38531;53.296;6.614;2023-09-07T13:33:07;31.50;92.40
52643;DHT22;38531;53.296;6.614;2023-09-07T13:35:33;31.60;93.00
52643;DHT22;38531;53.296;6.614;2023-09-07T13:37:59;31.70;91.30
52643;DHT22;38531;53.296;6.614;2023-09-07T13:40:25;31.70;91.00
52643;DHT22;38531;53.296;6.614;2023-09-07T13:42:55;31.70;91.20
52643;DHT22;38531;53.296;6.614;2023-09-07T13:45:22;31.70;91.40
52643;DHT22;38531;53.296;6.614;2023-09-07T13:47:48;31.70;91.90
52643;DHT22;38531;53.296;6.614;2023-09-07T13:50:14;31.60;91.00
52643;DHT22;38531;53.296;6.614;2023-09-07T13:52:40;31.50;90.80
52643;DHT22;38531;53.296;6.614;2023-09-07T13:55:06;31.50;91.10
52643;DHT22;38531;53.296;6.614;2023-09-07T13:57:35;31.50;91.90
52643;DHT22;38531;53.296;6.614;2023-09-07T14:00:03;31.50;90.90
52643;DHT22;38531;53.296;6.614;2023-09-07T14:02:31;31.50;90.90
52643;DHT22;38531;53.296;6.614;2023-09-07T14:08:16;31.40;90.80
52643;DHT22;38531;53.296;6.614;2023-09-07T14:10:55;31.50;91.90
52643;DHT22;38531;53.296;6.614;2023-09-07T14:13:23;31.40;91.60
52643;DHT22;38531;53.296;6.614;2023-09-07T14:15:49;31.40;91.50
52643;DHT22;38531;53.296;6.614;2023-09-07T14:18:21;31.50;92.30
52643;DHT22;38531;53.296;6.614;2023-09-07T14:24:46;31.50;92.20
52643;DHT22;38531;53.296;6.614;2023-09-07T14:27:11;31.50;91.90
52643;DHT22;38531;53.296;6.614;2023-09-07T14:29:37;31.30;92.10
52643;DHT22;38531;53.296;6.614;2023-09-07T14:32:03;31.30;92.10
52643;DHT22;38531;53.296;6.614;2023-09-07T14:34:29;31.30;92.30
52643;DHT22;38531;53.296;6.614;2023-09-07T14:36:55;31.20;91.50
52643;DHT22;38531;53.296;6.614;2023-09-07T14:39:24;31.30;92.70
52643;DHT22;38531;53.296;6.614;2023-09-07T14:41:50;31.30;92.00
52643;DHT22;38531;53.296;6.614;2023-09-07T14:44:19;31.20;92.10
52643;DHT22;38531;53.296;6.614;2023-09-07T14:46:59;31.20;92.80
52643;DHT22;38531;53.296;6.614;2023-09-07T14:49:51;31.20;92.40
52643;DHT22;38531;53.296;6.614;2023-09-07T15:00:34;30.90;93.20
52643;DHT22;38531;53.296;6.614;2023-09-07T15:56:48;28.50;95.60
52643;DHT22;38531;53.296;6.614;2023-09-07T15:59:25;28.40;95.20
52643;DHT22;38531;53.296;6.614;2023-09-07T16:01:54;28.30;95.80
52643;DHT22;38531;53.296;6.614;2023-09-07T16:04:39;28.30;95.50
52643;DHT22;38531;53.296;6.614;2023-09-07T16:07:07;28.20;96.20
52643;DHT22;38531;53.296;6.614;2023-09-07T16:09:33;28.10;95.90
52643;DHT22;38531;53.296;6.614;2023-09-07T16:12:09;28.00;96.00
52643;DHT22;38531;53.296;6.614;2023-09-07T16:18:32;27.90;96.60
52643;DHT22;38531;53.296;6.614;2023-09-07T16:47:44;27.10;97.50
52643;DHT22;38531;53.296;6.614;2023-09-07T17:01:55;26.60;97.90
52643;DHT22;38531;53.296;6.614;2023-09-07T17:07:42;26.50;97.90
52643;DHT22;38531;53.296;6.614;2023-09-07T17:10:25;26.40;98.30
52643;DHT22;38531;53.296;6.614;2023-09-07T17:12:57;26.30;98.10
52643;DHT22;38531;53.296;6.614;2023-09-07T17:15:23;26.20;98.80
52643;DHT22;38531;53.296;6.614;2023-09-07T17:17:55;25.90;99.10
52643;DHT22;38531;53.296;6.614;2023-09-07T17:20:21;25.90;99.30
52643;DHT22;38531;53.296;6.614;2023-09-07T17:22:46;25.90;99.40
52643;DHT22;38531;53.296;6.614;2023-09-07T17:25:15;25.70;99.50
52643;DHT22;38531;53.296;6.614;2023-09-07T17:28:14;25.70;99.60
52643;DHT22;38531;53.296;6.614;2023-09-07T17:30:54;25.50;99.90
52643;DHT22;38531;53.296;6.614;2023-09-07T17:33:54;25.30;99.90
52643;DHT22;38531;53.296;6.614;2023-09-07T17:51:01;24.50;99.90
52643;DHT22;38531;53.296;6.614;2023-09-07T17:53:29;24.40;99.90
52643;DHT22;38531;53.296;6.614;2023-09-07T17:55:55;24.30;99.90
52643;DHT22;38531;53.296;6.614;2023-09-07T17:58:23;24.20;99.90
52643;DHT22;38531;53.296;6.614;2023-09-07T18:00:49;24.10;99.90
52643;DHT22;38531;53.296;6.614;2023-09-07T18:03:14;24.10;99.90
52643;DHT22;38531;53.296;6.614;2023-09-07T18:05:43;23.90;99.90
52643;DHT22;38531;53.296;6.614;2023-09-07T18:08:14;23.70;99.90
52643;DHT22;38531;53.296;6.614;2023-09-07T18:10:40;23.70;99.90
52643;DHT22;38531;53.296;6.614;2023-09-07T18:13:08;23.60;99.90
52643;DHT22;38531;53.296;6.614;2023-09-07T18:15:34;23.50;99.90
52643;DHT22;38531;53.296;6.614;2023-09-07T18:18:03;23.40;99.90
52643;DHT22;38531;53.296;6.614;2023-09-07T18:20:31;23.40;99.90
52643;DHT22;38531;53.296;6.614;2023-09-07T18:22:57;23.30;99.90
52643;DHT22;38531;53.296;6.614;2023-09-07T18:25:24;23.30;99.90
52643;DHT22;38531;53.296;6.614;2023-09-07T18:27:53;23.20;99.90
52643;DHT22;38531;53.296;6.614;2023-09-07T18:30:25;23.20;99.90
52643;DHT22;38531;53.296;6.614;2023-09-07T18:32:57;23.10;99.90
52643;DHT22;38531;53.296;6.614;2023-09-07T18:35:30;23.00;99.90
52643;DHT22;38531;53.296;6.614;2023-09-07T18:37:57;23.00;99.90
52643;DHT22;38531;53.296;6.614;2023-09-07T18:40:23;23.00;99.90
52643;DHT22;38531;53.296;6.614;2023-09-07T18:42:52;22.70;99.90
52643;DHT22;38531;53.296;6.614;2023-09-07T18:45:19;22.60;99.90
52643;DHT22;38531;53.296;6.614;2023-09-07T18:47:49;22.50;99.90
52643;DHT22;38531;53.296;6.614;2023-09-07T18:50:15;22.40;99.90
52643;DHT22;38531;53.296;6.614;2023-09-07T18:52:45;22.40;99.90
52643;DHT22;38531;53.296;6.614;2023-09-07T18:55:16;22.30;99.90
52643;DHT22;38531;53.296;6.614;2023-09-07T18:57:53;22.30;99.90
52643;DHT22;38531;53.296;6.614;2023-09-07T19:00:22;22.20;99.90
52643;DHT22;38531;53.296;6.614;2023-09-07T19:02:54;22.20;99.90
52643;DHT22;38531;53.296;6.614;2023-09-07T19:05:35;22.30;99.90
52643;DHT22;38531;53.296;6.614;2023-09-07T19:08:03;22.00;99.90
52643;DHT22;38531;53.296;6.614;2023-09-07T19:10:39;22.00;99.90
52643;DHT22;38531;53.296;6.614;2023-09-07T19:13:15;21.90;99.90
52643;DHT22;38531;53.296;6.614;2023-09-07T19:15:54;21.90;99.90
52643;DHT22;38531;53.296;6.614;2023-09-07T19:21:11;21.90;99.90
52643;DHT22;38531;53.296;6.614;2023-09-07T19:31:08;21.70;99.90
52643;DHT22;38531;53.296;6.614;2023-09-07T19:33:40;21.70;99.90
52643;DHT22;38531;53.296;6.614;2023-09-07T19:36:06;21.80;99.90
52643;DHT22;38531;53.296;6.614;2023-09-07T19:38:37;21.70;99.90
52643;DHT22;38531;53.296;6.614;2023-09-07T19:41:06;21.60;99.90
52643;DHT22;38531;53.296;6.614;2023-09-07T19:43:37;21.50;99.90
52643;DHT22;38531;53.296;6.614;2023-09-07T19:46:13;21.40;99.90
52643;DHT22;38531;53.296;6.614;2023-09-07T19:49:13;21.30;99.90
52643;DHT22;38531;53.296;6.614;2023-09-07T19:58:32;21.10;99.90
52643;DHT22;38531;53.296;6.614;2023-09-07T20:01:14;21.00;99.90
52643;DHT22;38531;53.296;6.614;2023-09-07T20:03:51;21.00;99.90
52643;DHT22;38531;53.296;6.614;2023-09-07T20:06:34;20.90;99.90
52643;DHT22;38531;53.296;6.614;2023-09-07T20:09:24;20.80;99.90
52643;DHT22;38531;53.296;6.614;2023-09-07T20:12:17;20.80;99.90
52643;DHT22;38531;53.296;6.614;2023-09-07T20:14:48;20.70;99.90
52643;DHT22;38531;53.296;6.614;2023-09-07T20:17:17;20.60;99.90
52643;DHT22;38531;53.296;6.614;2023-09-07T20:19:43;20.50;99.90
52643;DHT22;38531;53.296;6.614;2023-09-07T20:22:13;20.50;99.90
52643;DHT22;38531;53.296;6.614;2023-09-07T20:24:41;20.40;99.90
52643;DHT22;38531;53.296;6.614;2023-09-07T20:27:08;20.40;99.90
52643;DHT22;38531;53.296;6.614;2023-09-07T20:29:34;20.30;99.90
52643;DHT22;38531;53.296;6.614;2023-09-07T20:31:59;20.30;99.90
52643;DHT22;38531;53.296;6.614;2023-09-07T20:34:25;20.20;99.90
52643;DHT22;38531;53.296;6.614;2023-09-07T20:36:51;20.20;99.90
52643;DHT22;38531;53.296;6.614;2023-09-07T20:39:16;20.20;99.90
52643;DHT22;38531;53.296;6.614;2023-09-07T20:41:43;20.20;99.90
52643;DHT22;38531;53.296;6.614;2023-09-07T20:44:09;20.20;99.90
52643;DHT22;38531;53.296;6.614;2023-09-07T20:46:35;20.20;99.90
52643;DHT22;38531;53.296;6.614;2023-09-07T20:49:00;20.20;99.90
52643;DHT22;38531;53.296;6.614;2023-09-07T20:51:26;20.20;99.90
52643;DHT22;38531;53.296;6.614;2023-09-07T20:54:12;20.20;99.90
52643;DHT22;38531;53.296;6.614;2023-09-07T20:56:45;20.30;99.90
52643;DHT22;38531;53.296;6.614;2023-09-07T20:59:30;20.30;99.90
52643;DHT22;38531;53.296;6.614;2023-09-07T21:01:56;20.20;99.90
52643;DHT22;38531;53.296;6.614;2023-09-07T21:04:25;20.30;99.90
52643;DHT22;38531;53.296;6.614;2023-09-07T21:06:51;20.30;99.90
52643;DHT22;38531;53.296;6.614;2023-09-07T21:09:17;20.30;99.90
52643;DHT22;38531;53.296;6.614;2023-09-07T21:11:43;20.30;99.90
52643;DHT22;38531;53.296;6.614;2023-09-07T21:14:09;20.30;99.90
52643;DHT22;38531;53.296;6.614;2023-09-07T21:16:36;20.30;99.90
52643;DHT22;38531;53.296;6.614;2023-09-07T21:19:04;20.30;99.90
52643;DHT22;38531;53.296;6.614;2023-09-07T21:21:30;20.30;99.90